createdAt,value
2023-01-06T00:00:37.413Z,100.00
2023-01-06T00:03:04.860Z,100.00
2023-01-06T00:05:31.535Z,100.00
2023-01-06T00:07:59.025Z,100.00
2023-01-06T00:10:26.436Z,100.00
2023-01-06T00:12:53.467Z,100.00
2023-01-06T00:15:20.686Z,100.00
2023-01-06T00:17:47.227Z,100.00
2023-01-06T00:20:14.428Z,100.00
2023-01-06T00:22:42.360Z,100.00
2023-01-06T00:25:10.615Z,100.00
2023-01-06T00:27:38.601Z,100.00
2023-01-06T00:30:07.514Z,100.00
2023-01-06T00:32:34.671Z,100.00
2023-01-06T00:35:01.464Z,100.00
2023-01-06T00:37:27.934Z,100.00
2023-01-06T00:39:54.711Z,100.00
2023-01-06T00:42:22.449Z,100.00
2023-01-06T00:44:49.785Z,100.00
2023-01-06T00:47:16.662Z,100.00
2023-01-06T00:49:43.100Z,100.00
2023-01-06T00:52:09.816Z,100.00
2023-01-06T00:54:37.052Z,100.00
2023-01-06T00:57:06.433Z,100.00
2023-01-06T00:59:33.522Z,100.00
2023-01-06T01:02:03.022Z,100.00
2023-01-06T01:04:30.397Z,100.00
2023-01-06T01:06:56.973Z,100.00
2023-01-06T01:09:29.501Z,100.00
2023-01-06T01:12:09.854Z,100.00
2023-01-06T01:14:40.096Z,100.00
2023-01-06T01:17:08.447Z,100.00
2023-01-06T01:19:35.691Z,100.00
2023-01-06T01:22:02.563Z,100.00
2023-01-06T01:24:29.628Z,100.00
2023-01-06T01:26:56.804Z,100.00
2023-01-06T01:29:24.821Z,100.00
2023-01-06T01:31:51.465Z,100.00
2023-01-06T01:34:18.776Z,100.00
2023-01-06T01:36:47.877Z,100.00
2023-01-06T01:39:16.846Z,100.00
2023-01-06T01:41:44.792Z,100.00
2023-01-06T01:44:48.866Z,100.00
2023-01-06T01:47:21.235Z,100.00
2023-01-06T01:49:51.841Z,100.00
2023-01-06T01:52:20.295Z,100.00
2023-01-06T01:54:48.738Z,100.00
2023-01-06T01:57:22.590Z,100.00
2023-01-06T01:59:50.053Z,100.00
2023-01-06T02:02:18.519Z,100.00
2023-01-06T02:04:51.303Z,100.00
2023-01-06T02:07:19.523Z,100.00
2023-01-06T02:10:10.749Z,100.00
2023-01-06T02:12:37.786Z,100.00
2023-01-06T02:15:13.527Z,100.00
2023-01-06T02:17:45.969Z,100.00
2023-01-06T02:20:25.223Z,100.00
2023-01-06T02:23:08.289Z,100.00
2023-01-06T02:26:15.276Z,100.00
2023-01-06T02:28:55.496Z,100.00
2023-01-06T02:31:57.143Z,100.00
2023-01-06T02:34:47.865Z,100.00
2023-01-06T02:37:26.749Z,100.00
2023-01-06T02:40:21.381Z,100.00
2023-01-06T02:43:10.959Z,100.00
2023-01-06T02:46:08.711Z,100.00
2023-01-06T02:49:01.955Z,100.00
2023-01-06T02:51:40.192Z,100.00
2023-01-06T02:54:30.681Z,100.00
2023-01-06T02:57:12.163Z,100.00
2023-01-06T02:59:47.090Z,100.00
2023-01-06T03:02:14.591Z,100.00
2023-01-06T03:04:46.214Z,100.00
2023-01-06T03:07:15.516Z,100.00
2023-01-06T03:09:42.967Z,100.00
2023-01-06T03:12:22.357Z,100.00
2023-01-06T03:14:54.991Z,100.00
2023-01-06T03:17:23.857Z,100.00
2023-01-06T03:19:50.989Z,100.00
2023-01-06T03:22:17.946Z,100.00
2023-01-06T03:24:45.337Z,100.00
2023-01-06T03:27:12.458Z,100.00
2023-01-06T03:29:40.275Z,100.00
2023-01-06T03:32:39.282Z,100.00
2023-01-06T03:35:59.939Z,100.00
2023-01-06T03:38:39.542Z,100.00
2023-01-06T03:41:48.054Z,100.00
2023-01-06T03:44:26.808Z,100.00
2023-01-06T03:47:04.370Z,100.00
2023-01-06T03:49:52.000Z,100.00
2023-01-06T03:52:27.062Z,100.00
2023-01-06T03:55:03.644Z,100.00
2023-01-06T03:57:34.661Z,100.00
2023-01-06T04:00:12.583Z,100.00
2023-01-06T04:02:47.423Z,100.00
2023-01-06T04:05:21.281Z,100.00
2023-01-06T04:07:49.483Z,100.00
2023-01-06T04:10:19.357Z,100.00
2023-01-06T04:12:48.469Z,100.00
2023-01-06T04:15:22.416Z,100.00
2023-01-06T04:17:50.939Z,100.00
2023-01-06T04:20:22.002Z,100.00
2023-01-06T04:22:54.519Z,100.00
2023-01-06T04:25:21.759Z,100.00
2023-01-06T04:27:48.348Z,100.00
2023-01-06T04:30:15.085Z,100.00
2023-01-06T04:32:42.949Z,100.00
2023-01-06T04:35:09.771Z,100.00
2023-01-06T04:37:36.743Z,100.00
2023-01-06T04:40:03.810Z,100.00
2023-01-06T04:42:50.201Z,100.00
2023-01-06T04:45:16.838Z,100.00
2023-01-06T04:47:43.289Z,100.00
2023-01-06T04:50:10.721Z,100.00
2023-01-06T04:52:37.179Z,100.00
2023-01-06T04:55:04.236Z,100.00
2023-01-06T04:57:30.833Z,100.00
2023-01-06T04:59:57.301Z,100.00
2023-01-06T05:02:23.730Z,100.00
2023-01-06T05:04:50.625Z,100.00
2023-01-06T05:07:17.068Z,100.00
2023-01-06T05:09:43.575Z,100.00
2023-01-06T05:12:10.080Z,100.00
2023-01-06T05:14:36.584Z,100.00
2023-01-06T05:17:03.291Z,100.00
2023-01-06T05:19:29.773Z,100.00
2023-01-06T05:21:56.293Z,100.00
2023-01-06T05:24:22.777Z,100.00
2023-01-06T05:26:49.329Z,100.00
2023-01-06T05:29:17.465Z,100.00
2023-01-06T05:31:44.378Z,100.00
2023-01-06T05:34:11.094Z,100.00
2023-01-06T05:36:37.691Z,100.00
2023-01-06T05:39:04.578Z,100.00
2023-01-06T05:41:31.150Z,100.00
2023-01-06T05:43:58.042Z,100.00
2023-01-06T05:46:24.511Z,100.00
2023-01-06T05:48:51.133Z,100.00
2023-01-06T05:51:17.853Z,100.00
2023-01-06T05:53:46.213Z,100.00
2023-01-06T05:56:15.632Z,100.00
2023-01-06T05:58:45.636Z,100.00
2023-01-06T06:01:25.107Z,100.00
2023-01-06T06:03:53.569Z,100.00
2023-01-06T06:06:22.454Z,100.00
2023-01-06T06:08:48.949Z,100.00
2023-01-06T06:11:18.060Z,100.00
2023-01-06T06:13:55.679Z,100.00
2023-01-06T06:16:25.212Z,100.00
2023-01-06T06:18:56.727Z,100.00
2023-01-06T06:21:28.161Z,100.00
2023-01-06T06:23:56.279Z,100.00
2023-01-06T06:26:23.451Z,100.00
2023-01-06T06:28:50.481Z,100.00
2023-01-06T06:31:18.686Z,100.00
2023-01-06T06:33:45.236Z,100.00
2023-01-06T06:36:15.777Z,100.00
2023-01-06T06:38:47.794Z,100.00
2023-01-06T06:41:14.984Z,100.00
2023-01-06T06:43:42.327Z,100.00
2023-01-06T06:46:09.892Z,100.00
2023-01-06T06:48:36.800Z,100.00
2023-01-06T06:51:08.224Z,100.00
2023-01-06T06:53:35.557Z,100.00
2023-01-06T06:56:03.522Z,100.00
2023-01-06T06:58:30.104Z,100.00
2023-01-06T07:00:57.028Z,100.00
2023-01-06T07:03:23.569Z,100.00
2023-01-06T07:05:51.603Z,100.00
2023-01-06T07:08:18.747Z,100.00
2023-01-06T07:10:45.410Z,100.00
2023-01-06T07:13:12.046Z,100.00
2023-01-06T07:15:38.946Z,100.00
2023-01-06T07:18:06.185Z,100.00
2023-01-06T07:20:34.847Z,100.00
2023-01-06T07:23:01.646Z,100.00
2023-01-06T07:25:28.406Z,100.00
2023-01-06T07:28:00.259Z,100.00
2023-01-06T07:30:27.733Z,100.00
2023-01-06T07:32:54.583Z,100.00
2023-01-06T07:35:21.388Z,100.00
2023-01-06T07:37:48.059Z,100.00
2023-01-06T07:40:14.997Z,100.00
2023-01-06T07:42:41.432Z,100.00
2023-01-06T07:45:08.540Z,100.00
2023-01-06T07:47:37.885Z,100.00
2023-01-06T07:50:05.620Z,100.00
2023-01-06T07:52:32.361Z,100.00
2023-01-06T07:54:59.787Z,100.00
2023-01-06T07:57:30.103Z,100.00
2023-01-06T07:59:56.788Z,100.00
2023-01-06T08:02:23.721Z,100.00
2023-01-06T08:04:50.206Z,100.00
2023-01-06T08:07:17.647Z,100.00
2023-01-06T08:09:45.184Z,100.00
2023-01-06T08:12:14.517Z,100.00
2023-01-06T08:14:44.165Z,100.00
2023-01-06T08:17:11.018Z,100.00
2023-01-06T08:19:37.572Z,100.00
2023-01-06T08:22:04.086Z,100.00
2023-01-06T08:24:31.847Z,100.00
2023-01-06T08:27:00.559Z,100.00
2023-01-06T08:29:27.438Z,100.00
2023-01-06T08:31:59.331Z,100.00
2023-01-06T08:34:32.089Z,100.00
2023-01-06T08:36:58.608Z,100.00
2023-01-06T08:39:25.064Z,100.00
2023-01-06T08:41:51.972Z,100.00
2023-01-06T08:44:18.780Z,100.00
2023-01-06T08:46:46.439Z,100.00
2023-01-06T08:49:13.982Z,100.00
2023-01-06T08:51:40.416Z,100.00
2023-01-06T08:54:07.118Z,100.00
2023-01-06T08:56:33.714Z,100.00
2023-01-06T08:59:02.651Z,100.00
2023-01-06T09:01:35.049Z,100.00
2023-01-06T09:04:04.519Z,100.00
2023-01-06T09:06:31.334Z,100.00
2023-01-06T09:08:57.934Z,100.00
2023-01-06T09:11:24.637Z,100.00
2023-01-06T09:13:51.302Z,100.00
2023-01-06T09:16:18.950Z,100.00
2023-01-06T09:18:49.813Z,100.00
2023-01-06T09:21:25.720Z,100.00
2023-01-06T09:23:52.368Z,100.00
2023-01-06T09:26:21.533Z,100.00
2023-01-06T09:28:50.078Z,100.00
2023-01-06T09:31:18.478Z,100.00
2023-01-06T09:33:46.461Z,100.00
2023-01-06T09:36:13.562Z,100.00
2023-01-06T09:38:40.215Z,100.00
2023-01-06T09:41:24.604Z,100.00
2023-01-06T09:43:59.409Z,100.00
2023-01-06T09:46:32.094Z,100.00
2023-01-06T09:49:25.797Z,100.00
2023-01-06T09:51:55.875Z,100.00
2023-01-06T09:54:42.973Z,100.00
2023-01-06T09:57:15.857Z,100.00
2023-01-06T10:00:03.786Z,100.00
2023-01-06T10:02:40.588Z,100.00
2023-01-06T10:05:36.263Z,100.00
2023-01-06T10:08:16.334Z,100.00
2023-01-06T10:10:53.685Z,100.00
2023-01-06T10:13:46.217Z,100.00
2023-01-06T10:16:45.371Z,100.00
2023-01-06T10:19:41.458Z,100.00
2023-01-06T10:22:22.994Z,100.00
2023-01-06T10:24:52.376Z,100.00
2023-01-06T10:27:27.002Z,100.00
2023-01-06T10:29:55.769Z,100.00
2023-01-06T10:32:25.691Z,100.00
2023-01-06T10:34:52.413Z,100.00
2023-01-06T10:37:32.219Z,100.00
2023-01-06T10:40:22.797Z,100.00
2023-01-06T10:42:56.573Z,100.00
2023-01-06T10:45:29.281Z,100.00
2023-01-06T10:47:56.897Z,100.00
2023-01-06T10:50:23.484Z,100.00
2023-01-06T10:52:52.630Z,100.00
2023-01-06T10:55:24.998Z,100.00
2023-01-06T10:57:53.817Z,100.00
2023-01-06T11:00:23.550Z,100.00
2023-01-06T11:02:51.053Z,100.00
2023-01-06T11:05:20.925Z,100.00
2023-01-06T11:08:08.423Z,100.00
2023-01-06T11:10:51.962Z,100.00
2023-01-06T11:13:33.646Z,100.00
2023-01-06T11:16:17.206Z,100.00
2023-01-06T11:18:43.987Z,100.00
2023-01-06T11:21:14.810Z,100.00
2023-01-06T11:23:43.466Z,100.00
2023-01-06T11:26:17.025Z,100.00
2023-01-06T11:28:46.415Z,100.00
2023-01-06T11:31:28.051Z,100.00
2023-01-06T11:33:57.411Z,100.00
2023-01-06T11:36:27.742Z,100.00
2023-01-06T11:38:58.822Z,100.00
2023-01-06T11:41:35.485Z,100.00
2023-01-06T11:44:10.140Z,99.26
2023-01-06T11:46:39.710Z,99.44
2023-01-06T11:49:16.165Z,98.87
2023-01-06T11:51:43.524Z,98.96
2023-01-06T11:54:37.435Z,97.50
2023-01-06T11:57:31.596Z,98.47
2023-01-06T12:00:20.542Z,97.33
2023-01-06T12:03:07.486Z,96.60
2023-01-06T12:05:37.448Z,96.96
2023-01-06T12:08:17.191Z,97.04
2023-01-06T12:10:48.408Z,97.03
2023-01-06T12:13:18.544Z,96.19
2023-01-06T12:15:55.168Z,96.95
2023-01-06T12:18:27.941Z,96.42
2023-01-06T12:20:58.113Z,96.27
2023-01-06T12:23:35.936Z,96.46
2023-01-06T12:26:14.747Z,95.95
2023-01-06T12:28:45.045Z,96.46
2023-01-06T12:31:27.666Z,96.47
2023-01-06T12:34:07.977Z,96.71
2023-01-06T12:37:04.133Z,96.64
2023-01-06T12:39:42.708Z,96.84
2023-01-06T12:42:18.943Z,96.98
2023-01-06T12:44:54.827Z,97.01
2023-01-06T12:47:31.097Z,96.24
2023-01-06T12:50:16.260Z,95.97
2023-01-06T12:52:50.650Z,95.07
2023-01-06T12:55:22.842Z,96.17
2023-01-06T12:57:58.990Z,95.45
2023-01-06T13:00:38.200Z,95.46
2023-01-06T13:03:20.222Z,94.36
2023-01-06T13:06:08.892Z,94.63
2023-01-06T13:08:51.182Z,94.92
2023-01-06T13:11:38.660Z,94.09
2023-01-06T13:14:15.976Z,94.54
2023-01-06T13:16:51.895Z,94.58
2023-01-06T13:19:41.891Z,95.32
2023-01-06T13:22:14.699Z,94.66
2023-01-06T13:24:56.614Z,94.66
2023-01-06T13:27:48.308Z,94.48
2023-01-06T13:30:24.475Z,94.37
2023-01-06T13:33:38.525Z,93.43
2023-01-06T13:36:10.903Z,93.76
2023-01-06T13:38:44.669Z,93.39
2023-01-06T13:41:19.798Z,94.31
2023-01-06T13:43:49.487Z,94.53
2023-01-06T13:46:20.237Z,94.96
2023-01-06T13:48:52.308Z,94.86
2023-01-06T13:51:23.144Z,95.15
2023-01-06T13:53:50.320Z,94.87
2023-01-06T13:56:16.689Z,94.59
2023-01-06T13:58:45.752Z,94.80
2023-01-06T14:01:18.557Z,95.10
2023-01-06T14:03:47.825Z,95.48
2023-01-06T14:06:23.596Z,95.85
2023-01-06T14:08:59.065Z,95.61
2023-01-06T14:11:32.802Z,95.73
2023-01-06T14:14:05.969Z,96.50
2023-01-06T14:16:49.866Z,96.48
2023-01-06T14:19:19.796Z,96.52
2023-01-06T14:21:49.016Z,96.64
2023-01-06T14:24:30.630Z,96.63
2023-01-06T14:27:01.339Z,95.91
2023-01-06T14:29:43.275Z,95.65
2023-01-06T14:32:11.104Z,95.79
2023-01-06T14:34:42.474Z,95.75
2023-01-06T14:37:14.892Z,95.71
2023-01-06T14:39:46.910Z,96.13
2023-01-06T14:42:21.683Z,95.71
2023-01-06T14:44:52.408Z,95.77
2023-01-06T14:47:33.841Z,95.81
2023-01-06T14:50:06.018Z,95.68
2023-01-06T14:52:40.955Z,95.56
2023-01-06T14:55:17.929Z,95.61
2023-01-06T14:57:45.054Z,95.59
2023-01-06T15:00:17.781Z,95.97
2023-01-06T15:02:53.706Z,95.71
2023-01-06T15:05:28.588Z,95.28
2023-01-06T15:08:01.007Z,95.64
2023-01-06T15:10:30.151Z,95.98
2023-01-06T15:12:57.549Z,95.99
2023-01-06T15:15:32.365Z,95.56
2023-01-06T15:18:01.759Z,95.76
2023-01-06T15:20:40.686Z,95.80
2023-01-06T15:23:08.300Z,95.58
2023-01-06T15:25:41.838Z,95.66
2023-01-06T15:28:27.054Z,95.76
2023-01-06T15:30:53.762Z,95.80
2023-01-06T15:33:23.777Z,96.06
2023-01-06T15:35:51.908Z,96.34
2023-01-06T15:38:31.509Z,95.97
2023-01-06T15:40:58.124Z,96.08
2023-01-06T15:43:27.415Z,96.09
2023-01-06T15:46:24.316Z,96.03
2023-01-06T15:48:51.739Z,96.05
2023-01-06T15:51:21.329Z,96.00
2023-01-06T15:53:54.654Z,95.59
2023-01-06T15:56:23.936Z,95.85
2023-01-06T15:58:53.282Z,95.95
2023-01-06T16:01:22.838Z,95.91
2023-01-06T16:03:51.896Z,96.26
2023-01-06T16:06:27.511Z,95.98
2023-01-06T16:09:14.508Z,96.40
2023-01-06T16:11:56.285Z,96.10
2023-01-06T16:14:24.721Z,96.11
2023-01-06T16:16:51.787Z,95.99
2023-01-06T16:19:20.934Z,95.56
2023-01-06T16:21:51.841Z,96.19
2023-01-06T16:24:26.821Z,96.05
2023-01-06T16:27:00.516Z,96.37
2023-01-06T16:29:29.399Z,96.27
2023-01-06T16:31:57.840Z,96.39
2023-01-06T16:34:28.295Z,96.52
2023-01-06T16:37:02.426Z,96.66
2023-01-06T16:39:32.373Z,96.87
2023-01-06T16:42:01.736Z,97.13
2023-01-06T16:44:30.377Z,97.19
2023-01-06T16:47:00.909Z,97.16
2023-01-06T16:49:30.545Z,96.90
2023-01-06T16:51:57.234Z,96.56
2023-01-06T16:54:23.708Z,96.51
2023-01-06T16:56:52.020Z,96.53
2023-01-06T16:59:21.848Z,96.90
2023-01-06T17:01:49.075Z,96.56
2023-01-06T17:04:15.962Z,96.97
2023-01-06T17:06:45.389Z,96.98
2023-01-06T17:09:23.289Z,96.84
2023-01-06T17:11:52.726Z,96.89
2023-01-06T17:14:21.425Z,96.94
2023-01-06T17:16:48.705Z,96.72
2023-01-06T17:19:27.401Z,96.39
2023-01-06T17:22:11.162Z,96.50
2023-01-06T17:24:37.669Z,96.53
2023-01-06T17:27:25.853Z,96.41
2023-01-06T17:29:53.425Z,96.86
2023-01-06T17:32:23.680Z,96.97
2023-01-06T17:34:50.766Z,97.18
2023-01-06T17:37:28.532Z,96.71
2023-01-06T17:39:56.833Z,96.95
2023-01-06T17:42:28.894Z,96.74
2023-01-06T17:44:57.141Z,97.10
2023-01-06T17:47:23.511Z,97.22
2023-01-06T17:49:58.988Z,96.81
2023-01-06T17:52:32.350Z,97.18
2023-01-06T17:55:21.411Z,97.23
2023-01-06T17:57:47.982Z,97.06
2023-01-06T18:00:29.194Z,97.21
2023-01-06T18:03:04.728Z,97.10
2023-01-06T18:05:33.392Z,96.99
2023-01-06T18:08:05.852Z,97.07
2023-01-06T18:10:42.751Z,97.09
2023-01-06T18:13:14.644Z,97.09
2023-01-06T18:15:41.806Z,97.30
2023-01-06T18:18:17.253Z,97.14
2023-01-06T18:20:52.684Z,97.07
2023-01-06T18:23:22.976Z,97.47
2023-01-06T18:25:57.346Z,97.78
2023-01-06T18:28:24.190Z,97.75
2023-01-06T18:30:58.802Z,97.59
2023-01-06T18:33:26.161Z,97.63
2023-01-06T18:35:57.253Z,97.67
2023-01-06T18:38:29.882Z,97.69
2023-01-06T18:40:56.412Z,97.88
2023-01-06T18:43:29.749Z,98.01
2023-01-06T18:46:01.073Z,98.04
2023-01-06T18:48:32.196Z,97.89
2023-01-06T18:51:01.237Z,98.01
2023-01-06T18:53:37.771Z,98.29
2023-01-06T18:56:21.647Z,98.23
2023-01-06T18:58:52.390Z,98.27
2023-01-06T19:01:21.626Z,98.18
2023-01-06T19:04:18.856Z,98.12
2023-01-06T19:06:51.192Z,98.02
2023-01-06T19:09:17.681Z,97.92
2023-01-06T19:11:46.877Z,97.96
2023-01-06T19:14:18.278Z,97.98
2023-01-06T19:16:53.501Z,98.09
2023-01-06T19:19:32.068Z,98.24
2023-01-06T19:22:06.859Z,98.03
2023-01-06T19:24:42.996Z,98.02
2023-01-06T19:27:32.647Z,97.86
2023-01-06T19:30:37.080Z,98.00
2023-01-06T19:33:23.015Z,98.00
2023-01-06T19:35:51.574Z,97.94
2023-01-06T19:38:24.375Z,97.81
2023-01-06T19:40:51.071Z,98.02
2023-01-06T19:43:21.846Z,98.21
2023-01-06T19:45:48.778Z,98.65
2023-01-06T19:48:30.536Z,98.36
2023-01-06T19:51:18.686Z,98.38
2023-01-06T19:53:48.276Z,98.55
2023-01-06T19:56:19.704Z,98.50
2023-01-06T19:58:52.082Z,98.71
2023-01-06T20:01:19.809Z,98.83
2023-01-06T20:03:47.906Z,99.03
2023-01-06T20:06:16.467Z,99.05
2023-01-06T20:08:43.893Z,99.22
2023-01-06T20:11:15.202Z,99.18
2023-01-06T20:13:44.676Z,99.08
2023-01-06T20:16:11.616Z,99.21
2023-01-06T20:18:38.862Z,99.37
2023-01-06T20:21:06.239Z,99.03
2023-01-06T20:23:32.808Z,98.95
2023-01-06T20:25:59.720Z,98.83
2023-01-06T20:28:26.607Z,98.77
2023-01-06T20:30:53.126Z,98.72
2023-01-06T20:33:20.355Z,98.60
2023-01-06T20:35:46.927Z,98.97
2023-01-06T20:38:13.700Z,99.01
2023-01-06T20:40:40.208Z,99.53
2023-01-06T20:43:07.298Z,99.50
2023-01-06T20:45:35.049Z,99.84
2023-01-06T20:48:03.888Z,99.82
2023-01-06T20:50:30.753Z,99.81
2023-01-06T20:52:57.250Z,99.78
2023-01-06T20:55:23.925Z,99.80
2023-01-06T20:57:51.002Z,99.65
2023-01-06T21:00:17.721Z,99.78
2023-01-06T21:02:44.828Z,99.86
2023-01-06T21:05:11.882Z,99.51
2023-01-06T21:07:38.674Z,99.54
2023-01-06T21:10:06.063Z,99.29
2023-01-06T21:12:32.588Z,99.70
2023-01-06T21:14:59.049Z,99.88
2023-01-06T21:17:26.051Z,100.00
2023-01-06T21:19:52.514Z,100.00
2023-01-06T21:22:19.255Z,100.00
2023-01-06T21:24:46.239Z,100.00
2023-01-06T21:27:12.711Z,99.97
2023-01-06T21:29:39.405Z,99.65
2023-01-06T21:32:06.048Z,99.82
2023-01-06T21:34:32.489Z,99.78
2023-01-06T21:36:58.943Z,99.57
2023-01-06T21:39:25.792Z,99.81
2023-01-06T21:42:10.765Z,100.00
2023-01-06T21:44:37.459Z,100.00
2023-01-06T21:47:03.984Z,99.90
2023-01-06T21:49:31.098Z,99.73
2023-01-06T21:51:59.404Z,99.83
2023-01-06T21:54:26.532Z,99.85
2023-01-06T21:56:52.921Z,99.97
2023-01-06T21:59:19.823Z,99.93
2023-01-06T22:01:46.490Z,100.00
2023-01-06T22:04:13.763Z,100.00
2023-01-06T22:06:43.493Z,100.00
2023-01-06T22:09:15.005Z,100.00
2023-01-06T22:11:44.320Z,100.00
2023-01-06T22:14:11.605Z,100.00
2023-01-06T22:16:40.313Z,100.00
2023-01-06T22:19:10.852Z,100.00
2023-01-06T22:21:38.209Z,100.00
2023-01-06T22:24:07.494Z,100.00
2023-01-06T22:26:34.451Z,100.00
2023-01-06T22:29:00.999Z,99.81
2023-01-06T22:31:27.697Z,99.83
2023-01-06T22:33:54.543Z,99.56
2023-01-06T22:36:21.314Z,99.74
2023-01-06T22:38:47.763Z,99.82
2023-01-06T22:41:14.406Z,99.67
2023-01-06T22:43:40.892Z,99.78
2023-01-06T22:46:07.781Z,99.69
2023-01-06T22:48:34.441Z,99.66
2023-01-06T22:51:04.668Z,100.00
2023-01-06T22:53:33.321Z,100.00
2023-01-06T22:56:02.610Z,100.00
2023-01-06T22:58:30.028Z,100.00
2023-01-06T23:00:56.838Z,100.00
2023-01-06T23:03:23.933Z,100.00
2023-01-06T23:05:57.290Z,100.00
2023-01-06T23:08:25.938Z,100.00
2023-01-06T23:11:01.012Z,100.00
2023-01-06T23:13:28.093Z,100.00
2023-01-06T23:16:10.097Z,100.00
2023-01-06T23:18:39.527Z,100.00
2023-01-06T23:21:14.400Z,100.00
2023-01-06T23:23:42.724Z,100.00
2023-01-06T23:26:15.961Z,100.00
2023-01-06T23:28:43.562Z,100.00
2023-01-06T23:31:15.565Z,100.00
2023-01-06T23:33:44.665Z,100.00
2023-01-06T23:36:12.874Z,100.00
2023-01-06T23:38:42.448Z,100.00
2023-01-06T23:41:14.784Z,100.00
2023-01-06T23:43:41.853Z,100.00
2023-01-06T23:46:13.048Z,100.00
2023-01-06T23:48:40.370Z,100.00
2023-01-06T23:51:08.479Z,100.00
2023-01-06T23:53:36.149Z,100.00
2023-01-06T23:56:11.789Z,100.00
2023-01-06T23:58:40.278Z,100.00
